Terminal Aerodrome Forecast
Issued by NWS Atlanta, GA

Home | Current Version | Previous Version | Text Only | Print | Product List | Glossary On
Versions: 1 2 3 4 5 6 7 8 9 10 11 12 13 14 15 16
870
FTUS42 KFFC 232332
TAFCSG
TAF
KCSG 232332Z 2400/2424 31005KT P6SM VCSH FEW050 SCT070
     FM240100 29004KT P6SM FEW080
     FM240400 33004KT P6SM SKC
     FM241100 03004KT P6SM SCT250
     FM241600 05006KT P6SM SCT040 SCT250=

USA.gov is the U.S. government's official web portal to all federal, state and local government web resources and services.